createdAt,value
2023-04-20T00:00:21.952Z,7.97
2023-04-20T00:02:49.309Z,7.87
2023-04-20T00:05:16.609Z,7.27
2023-04-20T00:07:44.313Z,7.50
2023-04-20T00:10:12.416Z,7.70
2023-04-20T00:12:40.234Z,7.57
2023-04-20T00:15:09.366Z,7.63
2023-04-20T00:17:39.890Z,7.73
2023-04-20T00:20:10.516Z,8.27
2023-04-20T00:22:38.210Z,8.10
2023-04-20T00:25:07.096Z,7.37
2023-04-20T00:27:35.150Z,7.17
2023-04-20T00:30:03.299Z,6.93
2023-04-20T00:32:31.112Z,7.27
2023-04-20T00:34:58.853Z,7.00
2023-04-20T00:37:26.820Z,7.40
2023-04-20T00:39:56.185Z,6.93
2023-04-20T00:42:24.302Z,7.27
2023-04-20T00:44:52.261Z,7.40
2023-04-20T00:47:20.069Z,7.40
2023-04-20T00:49:47.797Z,6.93
2023-04-20T00:52:14.902Z,7.37
2023-04-20T00:54:42.554Z,7.87
2023-04-20T00:57:13.561Z,7.47
2023-04-20T00:59:43.242Z,7.50
2023-04-20T01:02:10.605Z,6.67
2023-04-20T01:04:37.796Z,7.23
2023-04-20T01:07:04.928Z,6.53
2023-04-20T01:09:31.895Z,6.60
2023-04-20T01:11:58.826Z,6.37
2023-04-20T01:14:25.842Z,7.20
2023-04-20T01:16:52.848Z,6.70
2023-04-20T01:19:20.609Z,7.17
2023-04-20T01:21:47.991Z,7.00
2023-04-20T01:24:14.938Z,7.97
2023-04-20T01:26:41.893Z,6.87
2023-04-20T01:29:08.806Z,8.17
2023-04-20T01:31:35.770Z,7.20
2023-04-20T01:34:02.763Z,7.67
2023-04-20T01:36:29.769Z,7.70
2023-04-20T01:38:56.805Z,8.17
2023-04-20T01:41:24.648Z,8.23
2023-04-20T01:43:51.798Z,8.47
2023-04-20T01:46:18.807Z,8.40
2023-04-20T01:48:45.706Z,8.60
2023-04-20T01:51:12.698Z,7.83
2023-04-20T01:53:39.640Z,8.77
2023-04-20T01:56:06.918Z,9.43
2023-04-20T01:58:34.032Z,10.07
2023-04-20T02:01:02.749Z,10.20
2023-04-20T02:03:29.936Z,9.83
2023-04-20T02:05:56.943Z,9.50
2023-04-20T02:08:23.905Z,9.40
2023-04-20T02:10:50.847Z,9.00
2023-04-20T02:13:17.724Z,9.37
2023-04-20T02:15:44.839Z,10.57
2023-04-20T02:18:11.978Z,9.07
2023-04-20T02:20:39.029Z,10.27
2023-04-20T02:23:05.954Z,9.57
2023-04-20T02:25:32.895Z,10.50
2023-04-20T02:27:59.907Z,9.30
2023-04-20T02:30:26.901Z,10.23
2023-04-20T02:32:54.018Z,9.00
2023-04-20T02:35:21.175Z,10.50
2023-04-20T02:37:48.882Z,8.67
2023-04-20T02:40:16.069Z,9.27
2023-04-20T02:42:43.016Z,9.63
2023-04-20T02:45:11.153Z,10.43
2023-04-20T02:47:38.096Z,10.70
2023-04-20T02:50:06.176Z,10.70
2023-04-20T02:52:33.183Z,9.77
2023-04-20T02:55:00.573Z,10.07
2023-04-20T02:57:27.563Z,9.97
2023-04-20T02:59:54.501Z,11.10
2023-04-20T03:02:21.602Z,10.80
2023-04-20T03:04:48.758Z,11.30
2023-04-20T03:07:17.913Z,11.43
2023-04-20T03:09:44.949Z,10.93
2023-04-20T03:12:11.840Z,11.20
2023-04-20T03:14:38.794Z,11.60
2023-04-20T03:17:05.753Z,11.43
2023-04-20T03:19:32.646Z,11.70
2023-04-20T03:21:59.614Z,11.63
2023-04-20T03:24:26.575Z,11.03
2023-04-20T03:26:53.579Z,11.67
2023-04-20T03:29:20.725Z,10.83
2023-04-20T03:31:47.813Z,13.40
2023-04-20T03:34:14.743Z,12.17
2023-04-20T03:36:41.711Z,11.97
2023-04-20T03:39:08.661Z,12.33
2023-04-20T03:41:35.726Z,12.57
2023-04-20T03:44:02.653Z,12.90
2023-04-20T03:46:29.705Z,12.40
2023-04-20T03:48:56.775Z,12.53
2023-04-20T03:51:23.774Z,13.47
2023-04-20T03:53:51.632Z,13.43
2023-04-20T03:56:18.695Z,11.90
2023-04-20T03:58:45.624Z,12.10
2023-04-20T04:01:13.427Z,13.07
2023-04-20T04:03:40.718Z,13.07
2023-04-20T04:06:10.339Z,12.73
2023-04-20T04:08:37.264Z,12.20
2023-04-20T04:11:04.231Z,12.27
2023-04-20T04:13:32.556Z,12.40
2023-04-20T04:16:01.473Z,13.60
2023-04-20T04:18:32.712Z,13.33
2023-04-20T04:20:59.961Z,13.07
2023-04-20T04:23:26.890Z,12.30
2023-04-20T04:25:54.168Z,13.87
2023-04-20T04:28:21.622Z,13.43
2023-04-20T04:30:48.568Z,13.90
2023-04-20T04:33:15.562Z,13.33
2023-04-20T04:35:43.854Z,12.80
2023-04-20T04:38:14.068Z,13.53
2023-04-20T04:40:41.759Z,13.10
2023-04-20T04:43:12.493Z,11.80
2023-04-20T04:45:41.010Z,11.27
2023-04-20T04:48:12.190Z,12.87
2023-04-20T04:50:39.958Z,12.60
2023-04-20T04:53:07.685Z,12.37
2023-04-20T04:55:34.740Z,12.57
2023-04-20T04:58:01.803Z,12.00
2023-04-20T05:00:29.515Z,13.30
2023-04-20T05:02:56.929Z,13.20
2023-04-20T05:05:25.483Z,13.37
2023-04-20T05:07:52.412Z,13.07
2023-04-20T05:10:19.409Z,13.20
2023-04-20T05:12:46.929Z,11.80
2023-04-20T05:15:13.898Z,13.70
2023-04-20T05:17:40.900Z,13.10
2023-04-20T05:20:10.619Z,14.67
2023-04-20T05:22:38.062Z,13.60
2023-04-20T05:25:07.534Z,12.77
2023-04-20T05:27:34.738Z,13.13
2023-04-20T05:30:16.592Z,12.47
2023-04-20T05:32:50.673Z,13.07
2023-04-20T05:35:18.701Z,12.57
2023-04-20T05:37:47.676Z,13.20
2023-04-20T05:40:15.752Z,13.33
2023-04-20T05:42:42.904Z,13.63
2023-04-20T05:45:11.028Z,13.13
2023-04-20T05:47:38.039Z,13.67
2023-04-20T05:50:05.808Z,13.83
2023-04-20T05:52:32.871Z,13.17
2023-04-20T05:55:00.284Z,13.03
2023-04-20T05:57:27.334Z,12.70
2023-04-20T05:59:55.984Z,14.00
2023-04-20T06:02:23.193Z,14.40
2023-04-20T06:04:50.369Z,13.63
2023-04-20T06:07:17.624Z,12.57
2023-04-20T06:09:44.577Z,13.67
2023-04-20T06:12:11.596Z,14.43
2023-04-20T06:14:38.563Z,14.07
2023-04-20T06:17:06.139Z,14.60
2023-04-20T06:19:33.112Z,14.70
2023-04-20T06:22:01.211Z,15.00
2023-04-20T06:24:28.324Z,14.80
2023-04-20T06:26:55.365Z,14.33
2023-04-20T06:29:22.266Z,14.83
2023-04-20T06:31:49.359Z,14.77
2023-04-20T06:34:16.565Z,14.70
2023-04-20T06:36:43.872Z,15.50
2023-04-20T06:39:14.162Z,14.20
2023-04-20T06:41:41.071Z,16.03
2023-04-20T06:44:07.991Z,14.73
2023-04-20T06:46:35.024Z,15.30
2023-04-20T06:49:03.019Z,13.87
2023-04-20T06:51:32.238Z,15.10
2023-04-20T06:53:59.132Z,13.67
2023-04-20T06:56:26.266Z,14.77
2023-04-20T06:58:53.205Z,14.50
2023-04-20T07:01:20.311Z,13.40
2023-04-20T07:03:47.618Z,13.33
2023-04-20T07:06:16.953Z,13.00
2023-04-20T07:08:43.915Z,13.13
2023-04-20T07:11:10.924Z,14.53
2023-04-20T07:13:37.850Z,13.30
2023-04-20T07:16:05.169Z,11.87
2023-04-20T07:18:34.029Z,12.37
2023-04-20T07:21:02.375Z,13.43
2023-04-20T07:23:29.255Z,13.90
2023-04-20T07:25:56.180Z,13.37
2023-04-20T07:28:23.076Z,13.23
2023-04-20T07:30:49.956Z,13.90
2023-04-20T07:33:16.856Z,14.90
2023-04-20T07:35:43.760Z,13.67
2023-04-20T07:38:11.137Z,14.30
2023-04-20T07:40:38.114Z,13.40
2023-04-20T07:43:05.015Z,14.00
2023-04-20T07:45:31.936Z,13.03
2023-04-20T07:48:01.507Z,13.87
2023-04-20T07:50:28.735Z,13.30
2023-04-20T07:52:55.629Z,11.00
2023-04-20T07:55:22.560Z,12.40
2023-04-20T07:57:50.326Z,10.90
2023-04-20T08:00:18.066Z,11.70
2023-04-20T08:02:45.112Z,12.50
2023-04-20T08:05:12.723Z,13.60
2023-04-20T08:07:40.756Z,12.83
2023-04-20T08:10:08.675Z,12.10
2023-04-20T08:12:36.330Z,11.83
2023-04-20T08:15:06.518Z,12.30
2023-04-20T08:17:34.404Z,13.37
2023-04-20T08:20:01.402Z,13.10
2023-04-20T08:22:30.378Z,13.77
2023-04-20T08:24:57.925Z,12.70
2023-04-20T08:27:25.982Z,12.77
2023-04-20T08:29:52.875Z,12.87
2023-04-20T08:32:22.731Z,12.97
2023-04-20T08:34:50.548Z,11.70
2023-04-20T08:37:17.519Z,12.67
2023-04-20T08:39:44.434Z,13.20
2023-04-20T08:42:11.465Z,13.50
2023-04-20T08:44:38.480Z,14.13
2023-04-20T08:47:05.730Z,14.63
2023-04-20T08:49:33.976Z,13.33
2023-04-20T08:52:01.124Z,13.87
2023-04-20T08:54:28.206Z,15.50
2023-04-20T08:56:55.341Z,14.10
2023-04-20T08:59:22.522Z,15.50
2023-04-20T09:01:49.568Z,13.83
2023-04-20T09:04:25.821Z,16.20
2023-04-20T09:06:55.765Z,16.23
2023-04-20T09:09:25.667Z,15.70
2023-04-20T09:12:08.946Z,16.07
2023-04-20T09:14:47.530Z,17.20
2023-04-20T09:17:17.853Z,17.40
2023-04-20T09:19:46.233Z,17.57
2023-04-20T09:22:13.499Z,17.87
2023-04-20T09:24:44.108Z,16.90
2023-04-20T09:27:18.992Z,16.03
2023-04-20T09:30:01.515Z,17.23
2023-04-20T09:32:29.077Z,17.70
2023-04-20T09:34:57.017Z,16.80
2023-04-20T09:37:24.207Z,16.70
2023-04-20T09:39:51.325Z,14.80
2023-04-20T09:42:18.521Z,14.37
2023-04-20T09:44:45.542Z,15.33
2023-04-20T09:47:16.980Z,14.70
2023-04-20T09:49:47.655Z,15.47
2023-04-20T09:52:18.863Z,15.00
2023-04-20T09:54:46.153Z,13.30
2023-04-20T09:57:14.312Z,14.00
2023-04-20T09:59:46.779Z,13.43
2023-04-20T10:02:14.824Z,12.60
2023-04-20T10:04:56.070Z,11.93
2023-04-20T10:07:31.838Z,12.13
2023-04-20T10:10:12.653Z,12.10
2023-04-20T10:13:01.427Z,14.43
2023-04-20T10:15:39.774Z,12.07
2023-04-20T10:18:23.677Z,11.13
2023-04-20T10:20:52.223Z,12.00
2023-04-20T10:23:20.022Z,11.20
2023-04-20T10:25:58.993Z,9.97
2023-04-20T10:28:26.236Z,10.40
2023-04-20T10:30:53.975Z,10.90
2023-04-20T10:33:22.930Z,9.73
2023-04-20T10:35:54.933Z,10.70
2023-04-20T10:38:32.565Z,10.57
2023-04-20T10:41:13.568Z,9.50
2023-04-20T10:43:43.197Z,11.23
2023-04-20T10:46:21.822Z,10.90
2023-04-20T10:49:03.726Z,10.83
2023-04-20T10:51:30.944Z,10.60
2023-04-20T10:54:04.998Z,9.53
2023-04-20T10:56:47.064Z,10.33
2023-04-20T10:59:16.971Z,11.63
2023-04-20T11:01:45.328Z,10.50
2023-04-20T11:04:14.464Z,10.93
2023-04-20T11:06:46.792Z,10.70
2023-04-20T11:09:26.622Z,11.37
2023-04-20T11:12:06.373Z,12.10
2023-04-20T11:14:39.049Z,11.37
2023-04-20T11:17:06.660Z,12.80
2023-04-20T11:19:36.062Z,11.60
2023-04-20T11:22:06.491Z,13.17
2023-04-20T11:24:34.911Z,13.10
2023-04-20T11:27:04.704Z,12.57
2023-04-20T11:29:38.652Z,12.63
2023-04-20T11:32:12.300Z,13.60
2023-04-20T11:34:40.119Z,12.60
2023-04-20T11:37:13.804Z,11.53
2023-04-20T11:39:41.776Z,12.70
2023-04-20T11:42:08.923Z,13.23
2023-04-20T11:44:36.863Z,11.30
2023-04-20T11:47:04.154Z,15.77
2023-04-20T11:49:31.460Z,12.57
2023-04-20T11:51:58.413Z,12.40
2023-04-20T11:54:27.282Z,11.40
2023-04-20T11:56:54.330Z,12.33
2023-04-20T11:59:21.911Z,12.70
2023-04-20T12:01:49.019Z,11.87
2023-04-20T12:04:16.763Z,12.47
2023-04-20T12:06:44.276Z,12.57
2023-04-20T12:09:11.349Z,13.00
2023-04-20T12:11:38.306Z,12.07
2023-04-20T12:14:05.349Z,10.93
2023-04-20T12:16:32.508Z,13.50
2023-04-20T12:18:59.606Z,12.53
2023-04-20T12:21:27.389Z,11.77
2023-04-20T12:23:54.447Z,12.00
2023-04-20T12:26:22.606Z,11.70
2023-04-20T12:28:52.733Z,11.77
2023-04-20T12:31:19.911Z,13.50
2023-04-20T12:33:46.910Z,11.73
2023-04-20T12:36:13.839Z,13.40
2023-04-20T12:38:40.790Z,12.10
2023-04-20T12:41:08.075Z,11.60
2023-04-20T12:43:34.986Z,11.53
2023-04-20T12:46:01.926Z,11.97
2023-04-20T12:48:28.898Z,11.20
2023-04-20T12:50:56.153Z,11.40
2023-04-20T12:53:23.097Z,11.40
2023-04-20T12:55:55.206Z,11.90
2023-04-20T12:58:24.818Z,11.97
2023-04-20T13:00:52.172Z,11.93
2023-04-20T13:03:19.271Z,12.53
2023-04-20T13:05:46.883Z,11.40
2023-04-20T13:08:13.884Z,12.63
2023-04-20T13:10:43.975Z,12.50
2023-04-20T13:13:11.691Z,12.60
2023-04-20T13:15:39.515Z,12.50
2023-04-20T13:18:07.532Z,13.27
2023-04-20T13:20:34.543Z,12.93
2023-04-20T13:23:02.391Z,12.70
2023-04-20T13:25:32.856Z,12.00
2023-04-20T13:28:02.379Z,11.67
2023-04-20T13:30:29.934Z,11.00
2023-04-20T13:32:56.986Z,12.90
2023-04-20T13:35:24.608Z,12.23
2023-04-20T13:37:51.668Z,12.70
2023-04-20T13:40:18.661Z,11.40
2023-04-20T13:42:45.689Z,11.13
2023-04-20T13:45:13.003Z,11.23
2023-04-20T13:47:40.676Z,12.30
2023-04-20T13:50:08.972Z,11.87
2023-04-20T13:52:36.184Z,11.43
2023-04-20T13:55:03.884Z,11.53
2023-04-20T13:57:31.648Z,12.47
2023-04-20T14:00:00.795Z,11.93
2023-04-20T14:02:29.131Z,11.37
2023-04-20T14:04:56.748Z,10.93
2023-04-20T14:07:23.960Z,11.40
2023-04-20T14:09:52.813Z,9.97
2023-04-20T14:12:19.884Z,8.97
2023-04-20T14:14:46.846Z,9.80
2023-04-20T14:17:14.504Z,10.20
2023-04-20T14:19:41.518Z,9.97
2023-04-20T14:22:08.438Z,8.87
2023-04-20T14:24:35.340Z,10.57
2023-04-20T14:27:02.455Z,10.53
2023-04-20T14:29:29.450Z,10.03
2023-04-20T14:31:56.476Z,9.73
2023-04-20T14:34:23.574Z,10.03
2023-04-20T14:36:50.477Z,10.50
2023-04-20T14:39:23.450Z,10.90
2023-04-20T14:41:50.436Z,9.50
2023-04-20T14:44:17.740Z,9.77
2023-04-20T14:46:44.961Z,9.03
2023-04-20T14:49:12.147Z,8.20
2023-04-20T14:51:39.739Z,9.23
2023-04-20T14:54:06.865Z,8.83
2023-04-20T14:56:34.320Z,8.10
2023-04-20T14:59:02.224Z,7.27
2023-04-20T15:01:29.189Z,7.13
2023-04-20T15:03:56.589Z,7.10
2023-04-20T15:06:23.818Z,7.43
2023-04-20T15:08:53.427Z,6.50
2023-04-20T15:11:20.404Z,7.37
2023-04-20T15:13:48.687Z,8.20
2023-04-20T15:16:15.797Z,7.40
2023-04-20T15:18:42.825Z,8.37
2023-04-20T15:21:10.786Z,6.83
2023-04-20T15:23:37.823Z,7.33
2023-04-20T15:26:05.285Z,7.20
2023-04-20T15:28:32.266Z,6.80
2023-04-20T15:30:59.190Z,6.67
2023-04-20T15:33:26.183Z,7.33
2023-04-20T15:35:53.125Z,6.93
2023-04-20T15:38:20.196Z,6.80
2023-04-20T15:40:47.186Z,6.60
2023-04-20T15:43:14.165Z,6.10
2023-04-20T15:45:43.394Z,6.90
2023-04-20T15:48:11.702Z,6.90
2023-04-20T15:50:38.646Z,7.30
2023-04-20T15:53:05.691Z,7.07
2023-04-20T15:55:34.655Z,6.20
2023-04-20T15:58:01.695Z,6.90
2023-04-20T16:05:22.033Z,6.40
2023-04-20T16:07:49.081Z,6.70
2023-04-20T16:10:16.376Z,7.00
2023-04-20T16:12:43.258Z,6.40
2023-04-20T16:15:10.433Z,6.30
2023-04-20T16:17:37.352Z,6.50
2023-04-20T16:20:06.479Z,6.97
2023-04-20T16:22:33.447Z,6.67
2023-04-20T16:25:00.494Z,6.40
2023-04-20T16:27:27.597Z,7.40
2023-04-20T16:29:54.536Z,6.70
2023-04-20T16:32:22.082Z,7.53
2023-04-20T16:34:49.090Z,6.77
2023-04-20T16:37:16.338Z,6.93
2023-04-20T16:39:43.801Z,6.40
2023-04-20T16:42:10.811Z,6.60
2023-04-20T16:44:39.092Z,6.83
2023-04-20T16:47:08.236Z,6.53
2023-04-20T16:49:35.875Z,7.13
2023-04-20T16:52:02.778Z,6.93
2023-04-20T16:54:29.795Z,6.47
2023-04-20T16:56:57.501Z,7.40
2023-04-20T16:59:24.517Z,6.50
2023-04-20T17:01:51.469Z,6.80
2023-04-20T17:04:18.854Z,6.20
2023-04-20T17:06:48.877Z,7.00
2023-04-20T17:09:15.840Z,6.83
2023-04-20T17:11:42.734Z,6.93
2023-04-20T17:14:09.818Z,7.80
2023-04-20T17:16:36.760Z,6.80
2023-04-20T17:19:04.046Z,7.17
2023-04-20T17:21:31.123Z,8.27
2023-04-20T17:23:58.124Z,6.77
2023-04-20T17:26:25.132Z,8.70
2023-04-20T17:28:52.265Z,7.37
2023-04-20T17:31:19.172Z,7.47
2023-04-20T17:33:46.135Z,7.13
2023-04-20T17:36:13.088Z,8.03
2023-04-20T17:38:40.222Z,8.37
2023-04-20T17:41:07.203Z,7.60
2023-04-20T17:43:36.118Z,8.43
2023-04-20T17:46:03.141Z,8.30
2023-04-20T17:48:30.157Z,7.07
2023-04-20T17:50:58.711Z,7.30
2023-04-20T17:53:26.099Z,7.67
2023-04-20T17:55:53.050Z,8.13
2023-04-20T17:58:20.038Z,8.80
2023-04-20T18:00:47.706Z,9.30
2023-04-20T18:03:15.065Z,9.77
2023-04-20T18:05:42.488Z,8.97
2023-04-20T18:08:10.311Z,11.07
2023-04-20T18:10:37.736Z,9.70
2023-04-20T18:13:05.093Z,9.73
2023-04-20T18:15:32.094Z,8.80
2023-04-20T18:17:59.145Z,9.80
2023-04-20T18:20:26.344Z,9.50
2023-04-20T18:22:53.307Z,10.40
2023-04-20T18:25:20.265Z,8.13
2023-04-20T18:27:47.256Z,6.90
2023-04-20T18:30:15.223Z,8.87
2023-04-20T18:32:42.359Z,8.13
2023-04-20T18:35:10.900Z,8.33
2023-04-20T18:37:38.298Z,8.93
2023-04-20T18:40:07.194Z,8.43
2023-04-20T18:42:34.257Z,8.53
2023-04-20T18:45:01.380Z,8.27
2023-04-20T18:47:29.540Z,8.50
2023-04-20T18:49:56.536Z,8.37
2023-04-20T18:52:23.586Z,8.27
2023-04-20T18:54:51.751Z,8.47
2023-04-20T18:57:21.566Z,8.37
2023-04-20T18:59:48.519Z,9.07
2023-04-20T19:02:15.568Z,8.23
2023-04-20T19:04:43.781Z,8.20
2023-04-20T19:07:10.779Z,7.60
2023-04-20T19:09:37.729Z,8.07
2023-04-20T19:12:05.719Z,8.30
2023-04-20T19:14:32.871Z,9.17
2023-04-20T19:17:02.061Z,7.00
2023-04-20T19:19:29.218Z,7.83
2023-04-20T19:21:57.760Z,7.40
2023-04-20T19:24:24.686Z,7.73
2023-04-20T19:26:51.825Z,7.40
2023-04-20T19:29:18.970Z,7.97
2023-04-20T19:31:45.933Z,7.90
2023-04-20T19:34:13.560Z,8.10
2023-04-20T19:36:41.902Z,7.03
2023-04-20T19:39:09.780Z,7.90
2023-04-20T19:41:37.992Z,8.27
2023-04-20T19:44:06.212Z,7.30
2023-04-20T19:46:34.008Z,8.30
2023-04-20T19:49:01.762Z,7.07
2023-04-20T19:51:28.984Z,7.17
2023-04-20T19:54:00.822Z,7.70
2023-04-20T19:56:27.803Z,6.60
2023-04-20T19:58:54.746Z,6.70
2023-04-20T20:01:21.753Z,7.00
2023-04-20T20:03:48.840Z,7.63
2023-04-20T20:06:16.368Z,7.60
2023-04-20T20:08:43.286Z,7.23
2023-04-20T20:11:10.384Z,7.13
2023-04-20T20:13:37.303Z,6.80
2023-04-20T20:16:04.688Z,6.67
2023-04-20T20:18:31.906Z,7.27
2023-04-20T20:20:58.805Z,7.80
2023-04-20T20:23:25.855Z,7.70
2023-04-20T20:25:52.917Z,7.87
2023-04-20T20:28:19.819Z,7.57
2023-04-20T20:30:46.857Z,6.97
2023-04-20T20:33:13.939Z,6.93
2023-04-20T20:35:41.028Z,7.23
2023-04-20T20:38:08.911Z,7.77
2023-04-20T20:40:39.725Z,6.67
2023-04-20T20:43:06.843Z,8.23
2023-04-20T20:45:33.828Z,6.87
2023-04-20T20:48:01.241Z,6.47
2023-04-20T20:50:28.272Z,6.20
2023-04-20T20:52:55.226Z,6.43
2023-04-20T20:55:22.394Z,6.73
2023-04-20T20:57:49.321Z,6.87
2023-04-20T21:00:16.476Z,6.90
2023-04-20T21:02:43.558Z,6.77
2023-04-20T21:05:11.294Z,6.40
2023-04-20T21:07:39.306Z,6.63
2023-04-20T21:10:07.088Z,6.40
2023-04-20T21:12:34.045Z,6.53
2023-04-20T21:15:01.059Z,6.50
2023-04-20T21:17:28.079Z,6.33
2023-04-20T21:19:55.020Z,5.93
2023-04-20T21:22:22.628Z,7.70
2023-04-20T21:24:49.601Z,6.27
2023-04-20T21:27:16.565Z,6.13
2023-04-20T21:29:43.531Z,7.10
2023-04-20T21:32:10.629Z,6.60
2023-04-20T21:34:37.615Z,6.83
2023-04-20T21:37:05.602Z,6.77
2023-04-20T21:39:32.730Z,6.30
2023-04-20T21:41:59.896Z,6.13
2023-04-20T21:44:27.202Z,6.53
2023-04-20T21:46:54.267Z,6.50
2023-04-20T21:49:21.618Z,6.30
2023-04-20T21:51:48.978Z,6.30
2023-04-20T21:54:16.025Z,5.90
2023-04-20T21:56:43.072Z,6.23
2023-04-20T21:59:10.046Z,6.27
2023-04-20T22:01:36.977Z,6.07
2023-04-20T22:04:04.949Z,6.43
2023-04-20T22:06:32.680Z,6.03
2023-04-20T22:08:59.922Z,5.80
2023-04-20T22:11:26.978Z,5.60
2023-04-20T22:13:53.990Z,5.40
2023-04-20T22:16:21.892Z,5.20
2023-04-20T22:18:49.207Z,4.87
2023-04-20T22:21:16.195Z,6.00
2023-04-20T22:23:43.154Z,5.90
2023-04-20T22:26:10.200Z,6.47
2023-04-20T22:28:37.147Z,5.70
2023-04-20T22:31:04.198Z,5.53
2023-04-20T22:33:31.218Z,5.63
2023-04-20T22:35:58.241Z,5.57
2023-04-20T22:38:25.310Z,6.03
2023-04-20T22:40:53.113Z,5.97
2023-04-20T22:43:21.452Z,5.80
2023-04-20T22:45:48.880Z,5.63
2023-04-20T22:48:15.927Z,5.40
2023-04-20T22:50:42.868Z,6.73
2023-04-20T22:53:09.993Z,6.60
2023-04-20T22:55:36.885Z,6.00
2023-04-20T22:58:03.983Z,5.23
2023-04-20T23:00:31.237Z,6.17
2023-04-20T23:02:58.267Z,5.70
2023-04-20T23:05:26.548Z,5.93
2023-04-20T23:07:55.111Z,5.60
2023-04-20T23:10:22.467Z,5.60
2023-04-20T23:12:49.730Z,5.33
2023-04-20T23:15:16.825Z,5.50
2023-04-20T23:17:44.076Z,6.47
2023-04-20T23:20:13.802Z,6.17
2023-04-20T23:22:41.035Z,4.83
2023-04-20T23:25:09.960Z,5.67
2023-04-20T23:27:37.338Z,6.27
2023-04-20T23:30:06.625Z,6.80
2023-04-20T23:32:33.774Z,7.40
2023-04-20T23:35:01.399Z,5.80
2023-04-20T23:37:28.610Z,5.63
2023-04-20T23:39:55.808Z,5.03
2023-04-20T23:42:23.075Z,6.00
2023-04-20T23:44:50.186Z,4.97
2023-04-20T23:47:17.626Z,6.57
2023-04-20T23:49:46.938Z,6.53
2023-04-20T23:52:14.089Z,6.23
2023-04-20T23:54:41.175Z,7.27
2023-04-20T23:57:08.316Z,6.97
2023-04-20T23:59:35.464Z,6.10
